createdAt,value
2023-05-20T00:00:59.140Z,100.00
2023-05-20T00:03:26.950Z,100.00
2023-05-20T00:05:54.705Z,100.00
2023-05-20T00:08:23.670Z,100.00
2023-05-20T00:10:51.293Z,100.00
2023-05-20T00:13:18.916Z,100.00
2023-05-20T00:15:47.088Z,100.00
2023-05-20T00:18:14.799Z,100.00
2023-05-20T00:20:42.467Z,100.00
2023-05-20T00:23:10.132Z,100.00
2023-05-20T00:25:39.086Z,100.00
2023-05-20T00:28:07.370Z,100.00
2023-05-20T00:30:34.972Z,100.00
2023-05-20T00:33:02.791Z,100.00
2023-05-20T00:35:30.499Z,100.00
2023-05-20T00:37:58.128Z,100.00
2023-05-20T00:40:26.060Z,100.00
2023-05-20T00:42:55.873Z,100.00
2023-05-20T00:45:23.643Z,100.00
2023-05-20T00:47:51.345Z,100.00
2023-05-20T00:50:19.279Z,100.00
2023-05-20T00:52:48.297Z,100.00
2023-05-20T00:55:15.987Z,100.00
2023-05-20T00:57:44.032Z,100.00
2023-05-20T01:00:14.970Z,100.00
2023-05-20T01:02:42.865Z,100.00
2023-05-20T01:05:11.067Z,100.00
2023-05-20T01:07:39.178Z,100.00
2023-05-20T01:10:07.890Z,100.00
2023-05-20T01:12:40.360Z,100.00
2023-05-20T01:15:11.234Z,100.00
2023-05-20T01:17:44.948Z,100.00
2023-05-20T01:20:14.185Z,100.00
2023-05-20T01:22:49.924Z,100.00
2023-05-20T01:25:17.718Z,100.00
2023-05-20T01:27:47.020Z,100.00
2023-05-20T01:30:15.632Z,100.00
2023-05-20T01:32:47.777Z,100.00
2023-05-20T01:35:17.124Z,100.00
2023-05-20T01:37:45.611Z,100.00
2023-05-20T01:40:16.789Z,100.00
2023-05-20T01:42:46.009Z,100.00
2023-05-20T01:45:13.803Z,100.00
2023-05-20T01:47:41.612Z,100.00
2023-05-20T01:50:10.148Z,100.00
2023-05-20T01:52:37.747Z,100.00
2023-05-20T01:55:06.171Z,100.00
2023-05-20T01:57:35.220Z,100.00
2023-05-20T02:00:03.812Z,100.00
2023-05-20T02:02:31.479Z,100.00
2023-05-20T02:04:59.205Z,100.00
2023-05-20T02:07:26.935Z,100.00
2023-05-20T02:09:54.657Z,100.00
2023-05-20T02:12:22.264Z,100.00
2023-05-20T02:14:51.279Z,100.00
2023-05-20T02:17:19.036Z,100.00
2023-05-20T02:19:47.020Z,100.00
2023-05-20T02:22:14.977Z,100.00
2023-05-20T02:24:43.649Z,100.00
2023-05-20T02:27:11.898Z,100.00
2023-05-20T02:29:39.586Z,100.00
2023-05-20T02:32:08.962Z,100.00
2023-05-20T02:34:36.598Z,100.00
2023-05-20T02:37:04.356Z,100.00
2023-05-20T02:39:32.025Z,100.00
2023-05-20T02:41:59.629Z,100.00
2023-05-20T02:44:27.265Z,100.00
2023-05-20T02:46:55.118Z,100.00
2023-05-20T02:49:24.389Z,100.00
2023-05-20T02:51:52.113Z,100.00
2023-05-20T02:54:19.708Z,100.00
2023-05-20T02:56:47.510Z,100.00
2023-05-20T02:59:15.510Z,100.00
2023-05-20T03:01:43.240Z,100.00
2023-05-20T03:04:11.578Z,100.00
2023-05-20T03:06:44.616Z,100.00
2023-05-20T03:09:12.717Z,100.00
2023-05-20T03:11:40.327Z,100.00
2023-05-20T03:14:07.972Z,100.00
2023-05-20T03:16:36.297Z,100.00
2023-05-20T03:19:03.995Z,100.00
2023-05-20T03:21:32.417Z,100.00
2023-05-20T03:24:01.477Z,100.00
2023-05-20T03:26:30.533Z,100.00
2023-05-20T03:28:58.294Z,100.00
2023-05-20T03:31:26.020Z,100.00
2023-05-20T03:33:53.684Z,100.00
2023-05-20T03:36:21.357Z,100.00
2023-05-20T03:38:49.412Z,100.00
2023-05-20T03:41:18.465Z,100.00
2023-05-20T03:43:46.143Z,100.00
2023-05-20T03:46:13.803Z,100.00
2023-05-20T03:48:41.561Z,100.00
2023-05-20T03:51:09.280Z,100.00
2023-05-20T03:53:36.905Z,100.00
2023-05-20T03:56:05.192Z,100.00
2023-05-20T03:58:35.328Z,100.00
2023-05-20T04:01:03.122Z,100.00
2023-05-20T04:03:31.485Z,100.00
2023-05-20T04:05:59.246Z,100.00
2023-05-20T04:08:26.948Z,100.00
2023-05-20T04:10:57.097Z,100.00
2023-05-20T04:13:26.221Z,100.00
2023-05-20T04:15:55.348Z,100.00
2023-05-20T04:18:22.948Z,100.00
2023-05-20T04:20:51.130Z,100.00
2023-05-20T04:23:18.713Z,100.00
2023-05-20T04:25:46.364Z,100.00
2023-05-20T04:28:16.201Z,100.00
2023-05-20T04:30:45.106Z,100.00
2023-05-20T04:33:14.897Z,100.00
2023-05-20T04:35:44.228Z,100.00
2023-05-20T04:38:11.915Z,100.00
2023-05-20T04:40:39.587Z,100.00
2023-05-20T04:43:07.224Z,100.00
2023-05-20T04:45:36.634Z,100.00
2023-05-20T04:48:04.339Z,100.00
2023-05-20T04:50:33.321Z,100.00
2023-05-20T04:53:00.997Z,100.00
2023-05-20T04:55:28.839Z,100.00
2023-05-20T04:57:56.500Z,100.00
2023-05-20T05:00:24.854Z,100.00
2023-05-20T05:02:52.612Z,100.00
2023-05-20T05:05:20.358Z,100.00
2023-05-20T05:07:49.322Z,100.00
2023-05-20T05:10:16.976Z,100.00
2023-05-20T05:12:44.616Z,100.00
2023-05-20T05:15:12.617Z,100.00
2023-05-20T05:17:40.271Z,100.00
2023-05-20T05:20:09.704Z,100.00
2023-05-20T05:22:39.632Z,100.00
2023-05-20T05:25:10.567Z,100.00
2023-05-20T05:27:38.459Z,100.00
2023-05-20T05:30:08.011Z,100.00
2023-05-20T05:32:36.363Z,100.00
2023-05-20T05:35:05.559Z,100.00
2023-05-20T05:37:34.625Z,99.58
2023-05-20T05:40:02.224Z,100.00
2023-05-20T05:42:31.236Z,88.58
2023-05-20T05:45:00.290Z,87.26
2023-05-20T05:47:32.331Z,82.72
2023-05-20T05:50:00.490Z,81.59
2023-05-20T05:52:28.552Z,80.53
2023-05-20T05:54:56.299Z,83.36
2023-05-20T05:57:24.057Z,76.92
2023-05-20T05:59:53.174Z,76.20
2023-05-20T06:02:20.848Z,75.11
2023-05-20T06:04:48.498Z,71.11
2023-05-20T06:07:16.714Z,75.89
2023-05-20T06:09:44.333Z,70.79
2023-05-20T06:12:13.874Z,67.25
2023-05-20T06:14:41.795Z,66.35
2023-05-20T06:17:10.789Z,62.83
2023-05-20T06:19:38.488Z,62.47
2023-05-20T06:22:06.192Z,56.52
2023-05-20T06:24:35.809Z,54.43
2023-05-20T06:27:03.968Z,52.98
2023-05-20T06:29:31.602Z,53.06
2023-05-20T06:31:59.310Z,51.75
2023-05-20T06:34:28.318Z,50.37
2023-05-20T06:36:56.393Z,50.53
2023-05-20T06:39:24.142Z,51.69
2023-05-20T06:41:52.081Z,51.47
2023-05-20T06:44:19.971Z,51.37
2023-05-20T06:46:47.754Z,51.35
2023-05-20T06:49:15.473Z,51.87
2023-05-20T06:51:45.102Z,52.35
2023-05-20T06:54:12.780Z,50.43
2023-05-20T06:56:40.424Z,51.17
2023-05-20T06:59:08.030Z,52.04
2023-05-20T07:01:35.674Z,52.80
2023-05-20T07:04:03.479Z,53.41
2023-05-20T07:06:31.491Z,53.50
2023-05-20T07:09:00.913Z,52.43
2023-05-20T07:11:28.687Z,53.30
2023-05-20T07:13:57.115Z,53.38
2023-05-20T07:16:24.860Z,53.62
2023-05-20T07:18:52.798Z,54.11
2023-05-20T07:21:20.482Z,55.38
2023-05-20T07:23:48.124Z,57.07
2023-05-20T07:26:17.126Z,57.11
2023-05-20T07:28:45.625Z,58.65
2023-05-20T07:31:13.436Z,58.38
2023-05-20T07:33:41.181Z,58.02
2023-05-20T07:36:10.463Z,59.12
2023-05-20T07:38:40.998Z,58.50
2023-05-20T07:41:09.237Z,59.25
2023-05-20T07:43:38.271Z,59.34
2023-05-20T07:46:05.889Z,59.99
2023-05-20T07:48:33.567Z,60.80
2023-05-20T07:51:01.345Z,62.22
2023-05-20T07:53:28.974Z,64.68
2023-05-20T07:55:57.359Z,67.72
2023-05-20T07:58:24.938Z,69.64
2023-05-20T08:00:53.917Z,74.13
2023-05-20T08:03:22.427Z,78.01
2023-05-20T08:05:51.017Z,80.64
2023-05-20T08:08:18.672Z,81.44
2023-05-20T08:10:46.344Z,83.09
2023-05-20T08:13:13.964Z,83.62
2023-05-20T08:15:41.571Z,90.80
2023-05-20T08:18:10.895Z,90.42
2023-05-20T08:20:38.656Z,94.60
2023-05-20T08:23:06.275Z,93.22
2023-05-20T08:25:34.123Z,93.67
2023-05-20T08:28:03.834Z,91.90
2023-05-20T08:30:31.632Z,93.14
2023-05-20T08:32:59.905Z,94.89
2023-05-20T08:35:29.022Z,98.84
2023-05-20T08:37:56.740Z,97.42
2023-05-20T08:40:24.543Z,100.00
2023-05-20T08:42:53.333Z,100.00
2023-05-20T08:45:26.460Z,100.00
2023-05-20T08:47:54.243Z,100.00
2023-05-20T08:50:22.218Z,100.00
2023-05-20T08:52:51.677Z,100.00
2023-05-20T08:55:25.067Z,100.00
2023-05-20T08:57:54.507Z,100.00
2023-05-20T09:00:27.030Z,100.00
2023-05-20T09:02:54.798Z,100.00
2023-05-20T09:05:23.467Z,100.00
2023-05-20T09:07:52.462Z,100.00
2023-05-20T09:10:20.828Z,100.00
2023-05-20T09:12:48.812Z,100.00
2023-05-20T09:15:16.469Z,99.10
2023-05-20T09:17:44.217Z,96.09
2023-05-20T09:20:12.554Z,92.88
2023-05-20T09:22:40.975Z,92.26
2023-05-20T09:25:12.335Z,91.45
2023-05-20T09:27:41.028Z,90.58
2023-05-20T09:30:12.675Z,91.60
2023-05-20T09:32:40.500Z,85.63
2023-05-20T09:35:09.184Z,89.48
2023-05-20T09:37:38.050Z,89.08
2023-05-20T09:40:09.220Z,90.48
2023-05-20T09:42:41.483Z,89.72
2023-05-20T09:45:10.361Z,92.01
2023-05-20T09:47:40.666Z,93.14
2023-05-20T09:50:09.971Z,88.01
2023-05-20T09:52:39.106Z,89.60
2023-05-20T09:55:08.438Z,87.71
2023-05-20T09:57:36.438Z,87.85
2023-05-20T10:00:08.485Z,92.80
2023-05-20T10:02:37.668Z,91.63
2023-05-20T10:05:12.258Z,88.09
2023-05-20T10:08:11.784Z,80.83
2023-05-20T10:10:47.854Z,77.87
2023-05-20T10:13:26.410Z,79.21
2023-05-20T10:16:03.273Z,79.06
2023-05-20T10:21:22.315Z,77.33
2023-05-20T10:23:50.042Z,76.21
2023-05-20T10:26:17.814Z,73.20
2023-05-20T10:28:46.811Z,73.26
2023-05-20T10:31:19.855Z,76.45
2023-05-20T10:33:48.477Z,75.53
2023-05-20T10:36:27.633Z,70.71
2023-05-20T10:38:56.175Z,69.06
2023-05-20T10:41:26.546Z,66.83
2023-05-20T10:44:04.564Z,64.42
2023-05-20T10:46:46.308Z,64.56
2023-05-20T10:49:26.776Z,65.89
2023-05-20T10:51:55.558Z,64.95
2023-05-20T10:54:24.154Z,65.25
2023-05-20T10:56:53.400Z,64.89
2023-05-20T10:59:22.581Z,63.65
2023-05-20T11:01:52.288Z,64.24
2023-05-20T11:04:20.654Z,63.01
2023-05-20T11:06:52.236Z,63.11
2023-05-20T11:09:19.892Z,63.04
2023-05-20T11:11:47.843Z,61.85
2023-05-20T11:14:17.236Z,63.24
2023-05-20T11:16:45.177Z,60.99
2023-05-20T11:19:17.345Z,60.37
2023-05-20T11:21:45.714Z,60.05
2023-05-20T11:24:13.524Z,59.42
2023-05-20T11:26:41.781Z,59.72
2023-05-20T11:29:09.741Z,59.50
2023-05-20T11:31:39.029Z,62.60
2023-05-20T11:34:06.810Z,63.30
2023-05-20T11:36:35.898Z,64.57
2023-05-20T11:39:05.516Z,62.93
2023-05-20T11:41:33.166Z,60.27
2023-05-20T11:44:01.537Z,60.78
2023-05-20T11:46:29.429Z,61.00
2023-05-20T11:48:57.967Z,59.25
2023-05-20T11:51:27.631Z,63.24
2023-05-20T11:54:01.128Z,63.19
2023-05-20T11:56:29.961Z,62.86
2023-05-20T11:59:00.298Z,62.47
2023-05-20T12:01:28.906Z,63.83
2023-05-20T12:03:56.915Z,61.92
2023-05-20T12:06:24.666Z,63.31
2023-05-20T12:08:52.283Z,61.85
2023-05-20T12:11:21.781Z,61.43
2023-05-20T12:13:50.315Z,60.39
2023-05-20T12:16:18.051Z,59.76
2023-05-20T12:18:45.815Z,58.78
2023-05-20T12:21:13.701Z,59.83
2023-05-20T12:23:41.345Z,59.12
2023-05-20T12:26:08.947Z,59.55
2023-05-20T12:28:37.912Z,61.03
2023-05-20T12:31:05.995Z,61.70
2023-05-20T12:33:33.658Z,61.56
2023-05-20T12:36:01.364Z,60.84
2023-05-20T12:38:29.256Z,59.15
2023-05-20T12:40:57.029Z,59.37
2023-05-20T12:43:24.716Z,58.98
2023-05-20T12:45:53.813Z,60.13
2023-05-20T12:48:21.470Z,60.40
2023-05-20T12:50:49.104Z,61.32
2023-05-20T12:53:16.882Z,61.87
2023-05-20T12:55:44.493Z,61.03
2023-05-20T12:58:12.121Z,62.36
2023-05-20T13:00:39.805Z,63.07
2023-05-20T13:03:08.992Z,61.17
2023-05-20T13:05:36.745Z,61.98
2023-05-20T13:08:04.472Z,62.87
2023-05-20T13:10:32.257Z,63.41
2023-05-20T13:13:00.194Z,64.06
2023-05-20T13:15:27.924Z,67.18
2023-05-20T13:17:56.333Z,67.21
2023-05-20T13:20:25.987Z,68.04
2023-05-20T13:22:53.698Z,67.65
2023-05-20T13:25:21.583Z,64.68
2023-05-20T13:27:49.306Z,62.05
2023-05-20T13:30:16.892Z,61.05
2023-05-20T13:32:44.569Z,59.75
2023-05-20T13:35:13.006Z,60.51
2023-05-20T13:37:42.122Z,60.21
2023-05-20T13:40:10.682Z,59.50
2023-05-20T13:42:38.550Z,59.67
2023-05-20T13:45:06.934Z,59.36
2023-05-20T13:47:34.628Z,58.85
2023-05-20T13:50:03.312Z,57.50
2023-05-20T13:52:31.173Z,55.21
2023-05-20T13:55:00.243Z,56.13
2023-05-20T13:57:27.957Z,56.11
2023-05-20T13:59:55.710Z,57.19
2023-05-20T14:02:23.370Z,56.90
2023-05-20T14:04:50.967Z,56.78
2023-05-20T14:07:18.860Z,56.05
2023-05-20T14:09:46.584Z,56.21
2023-05-20T14:12:15.653Z,55.67
2023-05-20T14:14:43.304Z,56.10
2023-05-20T14:17:11.364Z,54.92
2023-05-20T14:19:39.168Z,57.02
2023-05-20T14:22:07.163Z,56.50
2023-05-20T14:24:34.855Z,55.92
2023-05-20T14:27:02.475Z,55.55
2023-05-20T14:29:31.463Z,56.79
2023-05-20T14:32:01.315Z,56.71
2023-05-20T14:34:28.971Z,55.49
2023-05-20T14:36:57.109Z,55.84
2023-05-20T14:39:24.738Z,55.70
2023-05-20T14:41:52.393Z,55.13
2023-05-20T14:44:19.993Z,56.00
2023-05-20T14:46:49.081Z,55.17
2023-05-20T14:49:16.791Z,56.30
2023-05-20T14:51:44.580Z,56.26
2023-05-20T14:54:14.023Z,55.31
2023-05-20T14:56:41.919Z,54.09
2023-05-20T14:59:09.667Z,53.96
2023-05-20T15:01:37.394Z,53.64
2023-05-20T15:04:06.962Z,53.94
2023-05-20T15:06:35.843Z,54.40
2023-05-20T15:09:04.115Z,54.17
2023-05-20T15:11:31.685Z,54.10
2023-05-20T15:13:59.446Z,54.86
2023-05-20T15:16:28.648Z,55.33
2023-05-20T15:18:56.452Z,55.84
2023-05-20T15:21:25.657Z,56.12
2023-05-20T15:23:53.453Z,57.10
2023-05-20T15:26:21.743Z,56.66
2023-05-20T15:28:49.437Z,58.06
2023-05-20T15:31:17.130Z,58.24
2023-05-20T15:33:44.872Z,57.48
2023-05-20T15:36:12.659Z,58.42
2023-05-20T15:38:41.781Z,59.15
2023-05-20T15:41:12.274Z,59.07
2023-05-20T15:43:40.311Z,59.20
2023-05-20T15:46:08.026Z,60.11
2023-05-20T15:48:37.723Z,59.51
2023-05-20T15:51:05.961Z,59.34
2023-05-20T15:53:33.696Z,60.37
2023-05-20T15:56:02.804Z,60.21
2023-05-20T15:58:30.449Z,60.03
2023-05-20T16:00:58.232Z,58.96
2023-05-20T16:03:25.846Z,60.48
2023-05-20T16:05:53.563Z,60.58
2023-05-20T16:08:23.750Z,59.60
2023-05-20T16:10:51.406Z,60.07
2023-05-20T16:13:20.501Z,60.94
2023-05-20T16:15:50.155Z,61.77
2023-05-20T16:18:17.973Z,60.02
2023-05-20T16:20:45.653Z,58.82
2023-05-20T16:23:13.278Z,57.51
2023-05-20T16:25:41.173Z,56.96
2023-05-20T16:28:08.809Z,56.70
2023-05-20T16:30:37.793Z,56.37
2023-05-20T16:33:05.607Z,57.08
2023-05-20T16:35:33.206Z,56.56
2023-05-20T16:38:00.932Z,57.06
2023-05-20T16:40:28.608Z,57.48
2023-05-20T16:42:56.252Z,57.14
2023-05-20T16:45:24.026Z,57.80
2023-05-20T16:47:53.091Z,58.13
2023-05-20T16:50:20.918Z,58.70
2023-05-20T16:52:48.590Z,58.70
2023-05-20T16:55:16.454Z,58.60
2023-05-20T16:57:44.350Z,58.93
2023-05-20T17:00:13.116Z,58.33
2023-05-20T17:02:40.813Z,59.36
2023-05-20T17:05:10.632Z,58.35
2023-05-20T17:07:39.345Z,59.46
2023-05-20T17:10:08.241Z,59.81
2023-05-20T17:12:35.842Z,59.15
2023-05-20T17:15:03.679Z,58.46
2023-05-20T17:17:31.298Z,58.84
2023-05-20T17:19:58.914Z,58.48
2023-05-20T17:22:27.939Z,58.08
2023-05-20T17:24:55.571Z,58.46
2023-05-20T17:27:23.473Z,58.23
2023-05-20T17:29:51.220Z,58.95
2023-05-20T17:32:18.844Z,58.73
2023-05-20T17:34:46.454Z,58.65
2023-05-20T17:37:14.042Z,59.24
2023-05-20T17:39:44.380Z,59.12
2023-05-20T17:42:12.060Z,59.04
2023-05-20T17:44:39.653Z,59.68
2023-05-20T17:47:07.468Z,60.00
2023-05-20T17:49:35.108Z,59.71
2023-05-20T17:52:02.680Z,59.06
2023-05-20T17:54:30.408Z,59.03
2023-05-20T17:56:59.535Z,59.82
2023-05-20T17:59:27.478Z,60.45
2023-05-20T18:01:55.765Z,60.95
2023-05-20T18:04:23.522Z,60.81
2023-05-20T18:06:51.127Z,61.58
2023-05-20T18:09:19.416Z,61.60
2023-05-20T18:11:47.068Z,61.24
2023-05-20T18:14:18.627Z,62.16
2023-05-20T18:16:46.386Z,61.92
2023-05-20T18:19:15.042Z,62.63
2023-05-20T18:21:42.707Z,63.25
2023-05-20T18:24:11.389Z,63.44
2023-05-20T18:26:39.352Z,63.98
2023-05-20T18:29:07.172Z,63.55
2023-05-20T18:31:37.121Z,62.82
2023-05-20T18:34:05.174Z,62.79
2023-05-20T18:36:33.292Z,62.07
2023-05-20T18:39:04.759Z,61.40
2023-05-20T18:41:46.143Z,62.16
2023-05-20T18:44:17.391Z,62.08
2023-05-20T18:46:48.709Z,61.93
2023-05-20T18:49:16.523Z,62.65
2023-05-20T18:51:44.395Z,63.00
2023-05-20T18:54:12.403Z,63.90
2023-05-20T18:56:40.511Z,64.79
2023-05-20T18:59:08.842Z,65.35
2023-05-20T19:01:36.675Z,65.15
2023-05-20T19:04:06.244Z,65.93
2023-05-20T19:06:34.884Z,67.72
2023-05-20T19:09:02.750Z,68.95
2023-05-20T19:11:31.699Z,70.15
2023-05-20T19:13:59.776Z,72.23
2023-05-20T19:16:27.562Z,72.97
2023-05-20T19:18:55.239Z,74.54
2023-05-20T19:21:24.416Z,77.65
2023-05-20T19:23:52.303Z,79.21
2023-05-20T19:26:20.006Z,80.47
2023-05-20T19:28:47.965Z,82.47
2023-05-20T19:31:21.134Z,84.02
2023-05-20T19:33:49.275Z,85.38
2023-05-20T19:36:17.562Z,86.86
2023-05-20T19:38:46.754Z,88.68
2023-05-20T19:41:15.373Z,90.12
2023-05-20T19:43:43.010Z,89.65
2023-05-20T19:46:11.104Z,91.31
2023-05-20T19:48:38.782Z,91.61
2023-05-20T19:51:06.956Z,93.15
2023-05-20T19:53:34.791Z,96.55
2023-05-20T19:56:04.141Z,95.95
2023-05-20T19:58:32.374Z,97.28
2023-05-20T20:01:00.075Z,98.66
2023-05-20T20:03:27.922Z,98.50
2023-05-20T20:05:57.269Z,99.00
2023-05-20T20:08:25.102Z,100.00
2023-05-20T20:10:52.740Z,100.00
2023-05-20T20:13:21.810Z,100.00
2023-05-20T20:15:49.536Z,100.00
2023-05-20T20:18:17.299Z,100.00
2023-05-20T20:20:45.906Z,100.00
2023-05-20T20:23:13.491Z,100.00
2023-05-20T20:25:42.481Z,100.00
2023-05-20T20:28:11.565Z,100.00
2023-05-20T20:30:40.634Z,100.00
2023-05-20T20:33:09.581Z,100.00
2023-05-20T20:35:38.082Z,100.00
2023-05-20T20:38:09.557Z,100.00
2023-05-20T20:40:41.741Z,100.00
2023-05-20T20:43:10.759Z,100.00
2023-05-20T20:45:39.824Z,100.00
2023-05-20T20:48:07.928Z,100.00
2023-05-20T20:50:36.631Z,100.00
2023-05-20T20:53:04.341Z,100.00
2023-05-20T20:55:32.011Z,100.00
2023-05-20T20:58:02.776Z,100.00
2023-05-20T21:00:30.801Z,100.00
2023-05-20T21:02:59.851Z,100.00
2023-05-20T21:05:29.235Z,100.00
2023-05-20T21:07:59.551Z,100.00
2023-05-20T21:10:29.522Z,100.00
2023-05-20T21:12:57.984Z,100.00
2023-05-20T21:15:27.291Z,100.00
2023-05-20T21:17:55.192Z,100.00
2023-05-20T21:20:24.251Z,100.00
2023-05-20T21:22:51.908Z,100.00
2023-05-20T21:25:19.677Z,100.00
2023-05-20T21:27:47.375Z,100.00
2023-05-20T21:30:15.784Z,100.00
2023-05-20T21:32:43.549Z,100.00
2023-05-20T21:35:11.349Z,100.00
2023-05-20T21:37:40.265Z,100.00
2023-05-20T21:40:09.084Z,100.00
2023-05-20T21:42:36.736Z,100.00
2023-05-20T21:45:04.691Z,100.00
2023-05-20T21:47:32.437Z,100.00
2023-05-20T21:50:00.387Z,100.00
2023-05-20T21:52:28.032Z,100.00
2023-05-20T21:54:57.077Z,100.00
2023-05-20T21:57:24.675Z,100.00
2023-05-20T21:59:52.320Z,100.00
2023-05-20T22:02:20.130Z,100.00
2023-05-20T22:04:49.189Z,100.00
2023-05-20T22:07:16.825Z,100.00
2023-05-20T22:09:44.457Z,100.00
2023-05-20T22:12:15.268Z,100.00
2023-05-20T22:14:42.983Z,100.00
2023-05-20T22:17:10.645Z,100.00
2023-05-20T22:19:38.686Z,100.00
2023-05-20T22:22:06.471Z,100.00
2023-05-20T22:24:34.207Z,100.00
2023-05-20T22:27:01.951Z,100.00
2023-05-20T22:29:32.331Z,100.00
2023-05-20T22:32:00.290Z,100.00
2023-05-20T22:34:28.344Z,100.00
2023-05-20T22:36:55.974Z,100.00
2023-05-20T22:39:23.580Z,100.00
2023-05-20T22:41:51.178Z,100.00
2023-05-20T22:44:18.822Z,100.00
2023-05-20T22:46:47.827Z,100.00
2023-05-20T22:49:16.669Z,100.00
2023-05-20T22:51:44.253Z,100.00
2023-05-20T22:54:12.034Z,100.00
2023-05-20T22:56:39.807Z,100.00
2023-05-20T22:59:07.457Z,100.00
2023-05-20T23:01:35.258Z,100.00
2023-05-20T23:04:04.664Z,100.00
2023-05-20T23:06:32.750Z,100.00
2023-05-20T23:09:00.396Z,100.00
2023-05-20T23:11:28.033Z,100.00
2023-05-20T23:13:55.612Z,100.00
2023-05-20T23:16:26.231Z,100.00
2023-05-20T23:18:54.004Z,100.00
2023-05-20T23:21:23.348Z,100.00
2023-05-20T23:23:51.113Z,100.00
2023-05-20T23:26:18.736Z,100.00
2023-05-20T23:28:47.809Z,100.00
2023-05-20T23:31:15.740Z,100.00
2023-05-20T23:33:43.669Z,100.00
2023-05-20T23:36:12.425Z,100.00
2023-05-20T23:38:41.693Z,100.00
2023-05-20T23:41:09.406Z,100.00
2023-05-20T23:43:37.032Z,100.00
2023-05-20T23:46:04.758Z,100.00
2023-05-20T23:48:32.864Z,100.00
2023-05-20T23:51:00.588Z,100.00
2023-05-20T23:53:28.214Z,100.00
2023-05-20T23:55:57.169Z,100.00
2023-05-20T23:58:24.996Z,100.00
